createdAt,value
2023-03-30T00:01:00.856Z,5.93
2023-03-30T00:03:29.805Z,6.47
2023-03-30T00:05:58.471Z,8.93
2023-03-30T00:08:28.323Z,8.07
2023-03-30T00:11:02.760Z,14.53
2023-03-30T00:13:31.964Z,5.07
2023-03-30T00:16:00.651Z,7.70
2023-03-30T00:18:29.945Z,8.90
2023-03-30T00:20:59.167Z,7.90
2023-03-30T00:23:27.547Z,6.93
2023-03-30T00:25:56.078Z,10.23
2023-03-30T00:28:26.350Z,11.37
2023-03-30T00:30:54.865Z,11.37
2023-03-30T00:33:33.553Z,5.87
2023-03-30T00:36:10.862Z,7.80
2023-03-30T00:38:39.338Z,6.67
2023-03-30T00:41:07.857Z,5.63
2023-03-30T00:43:37.609Z,9.30
2023-03-30T00:46:06.297Z,5.07
2023-03-30T00:48:40.576Z,8.50
2023-03-30T00:51:10.520Z,5.73
2023-03-30T00:53:39.309Z,5.67
2023-03-30T00:56:08.435Z,5.77
2023-03-30T00:58:38.620Z,7.20
2023-03-30T01:01:07.904Z,6.53
2023-03-30T01:03:37.951Z,8.23
2023-03-30T01:06:07.523Z,9.93
2023-03-30T01:08:37.222Z,7.40
2023-03-30T01:11:06.664Z,7.00
2023-03-30T01:13:35.746Z,7.93
2023-03-30T01:16:08.537Z,14.07
2023-03-30T01:18:40.168Z,7.20
2023-03-30T01:21:12.601Z,6.07
2023-03-30T01:23:52.485Z,7.93
2023-03-30T01:26:28.498Z,9.87
2023-03-30T01:28:57.790Z,6.47
2023-03-30T01:31:42.000Z,6.37
2023-03-30T01:34:28.338Z,8.67
2023-03-30T01:37:09.097Z,8.23
2023-03-30T01:39:41.882Z,7.90
2023-03-30T01:42:12.192Z,5.97
2023-03-30T01:44:42.649Z,8.63
2023-03-30T01:47:11.887Z,8.87
2023-03-30T01:49:41.728Z,7.93
2023-03-30T01:52:12.714Z,10.00
2023-03-30T01:54:43.992Z,7.13
2023-03-30T01:57:14.276Z,8.87
2023-03-30T01:59:43.252Z,9.83
2023-03-30T02:02:11.709Z,6.00
2023-03-30T02:04:40.980Z,8.53
2023-03-30T02:07:10.496Z,9.73
2023-03-30T02:09:39.096Z,8.40
2023-03-30T02:12:09.020Z,7.70
2023-03-30T02:14:37.450Z,10.30
2023-03-30T02:17:07.574Z,8.07
2023-03-30T02:19:37.946Z,5.77
2023-03-30T02:22:08.774Z,8.97
2023-03-30T02:24:37.234Z,9.90
2023-03-30T02:27:05.724Z,4.83
2023-03-30T02:29:35.779Z,10.87
2023-03-30T02:32:04.312Z,8.33
2023-03-30T02:34:45.767Z,9.17
2023-03-30T02:37:24.174Z,6.83
2023-03-30T02:39:55.661Z,7.50
2023-03-30T02:42:38.887Z,5.53
2023-03-30T02:45:13.468Z,6.37
2023-03-30T02:47:43.558Z,6.40
2023-03-30T02:50:12.712Z,8.90
2023-03-30T02:52:43.105Z,6.40
2023-03-30T02:55:13.669Z,5.23
2023-03-30T02:57:44.853Z,6.63
2023-03-30T03:00:17.247Z,9.40
2023-03-30T03:02:47.942Z,6.43
2023-03-30T03:05:16.738Z,8.67
2023-03-30T03:07:45.361Z,6.73
2023-03-30T03:10:13.712Z,5.17
2023-03-30T03:12:42.342Z,5.23
2023-03-30T03:15:11.396Z,5.27
2023-03-30T03:17:41.911Z,6.47
2023-03-30T03:20:11.355Z,5.33
2023-03-30T03:22:39.695Z,7.80
2023-03-30T03:25:08.708Z,9.63
2023-03-30T03:27:37.195Z,7.93
2023-03-30T03:30:05.875Z,9.60
2023-03-30T03:32:34.299Z,12.37
2023-03-30T03:35:04.032Z,8.07
2023-03-30T03:37:33.193Z,13.60
2023-03-30T03:40:01.454Z,9.57
2023-03-30T03:42:29.738Z,8.33
2023-03-30T03:44:58.095Z,9.67
2023-03-30T03:47:26.664Z,8.07
2023-03-30T03:49:55.120Z,13.40
2023-03-30T03:52:24.932Z,13.07
2023-03-30T03:54:53.306Z,14.67
2023-03-30T03:57:24.037Z,7.43
2023-03-30T03:59:53.083Z,14.43
2023-03-30T04:02:23.826Z,14.43
2023-03-30T04:04:53.496Z,11.90
2023-03-30T04:07:22.111Z,13.40
2023-03-30T04:09:51.829Z,16.63
2023-03-30T04:12:20.848Z,15.67
2023-03-30T04:14:49.387Z,15.90
2023-03-30T04:17:17.772Z,16.60
2023-03-30T04:19:46.355Z,14.80
2023-03-30T04:22:14.720Z,18.10
2023-03-30T04:24:44.726Z,22.23
2023-03-30T04:27:16.950Z,15.23
2023-03-30T04:29:46.031Z,22.07
2023-03-30T04:32:20.705Z,15.97
2023-03-30T04:34:49.055Z,15.53
2023-03-30T04:37:18.421Z,17.90
2023-03-30T04:39:46.741Z,17.90
2023-03-30T04:42:20.202Z,29.47
2023-03-30T04:44:50.979Z,21.87
2023-03-30T04:47:19.600Z,12.50
2023-03-30T04:49:47.986Z,16.87
2023-03-30T04:52:16.753Z,21.30
2023-03-30T04:54:45.340Z,14.57
2023-03-30T04:57:14.204Z,24.77
2023-03-30T04:59:44.050Z,17.17
2023-03-30T05:02:12.880Z,15.63
2023-03-30T05:04:41.339Z,18.27
2023-03-30T05:07:10.994Z,19.07
2023-03-30T05:09:39.354Z,23.97
2023-03-30T05:12:07.816Z,21.87
2023-03-30T05:14:36.218Z,16.93
2023-03-30T05:17:05.977Z,17.50
2023-03-30T05:19:35.084Z,24.43
2023-03-30T05:22:03.401Z,24.27
2023-03-30T05:24:31.763Z,22.70
2023-03-30T05:27:00.108Z,17.97
2023-03-30T05:29:28.604Z,25.97
2023-03-30T05:31:57.022Z,20.27
2023-03-30T05:34:27.123Z,21.73
2023-03-30T05:36:55.759Z,30.47
2023-03-30T05:39:24.893Z,22.27
2023-03-30T05:41:54.195Z,26.30
2023-03-30T05:44:22.791Z,34.37
2023-03-30T05:46:51.508Z,32.00
2023-03-30T05:49:19.818Z,24.43
2023-03-30T05:51:49.553Z,25.90
2023-03-30T05:54:17.887Z,24.90
2023-03-30T05:56:46.388Z,29.70
2023-03-30T05:59:14.848Z,26.07
2023-03-30T06:01:43.268Z,32.57
2023-03-30T06:04:11.835Z,31.77
2023-03-30T06:06:40.931Z,23.57
2023-03-30T06:09:16.609Z,31.67
2023-03-30T06:11:45.058Z,26.37
2023-03-30T06:14:13.545Z,27.77
2023-03-30T06:16:41.919Z,26.20
2023-03-30T06:19:10.311Z,20.43
2023-03-30T06:21:39.828Z,26.27
2023-03-30T06:24:08.256Z,24.87
2023-03-30T06:26:37.904Z,33.13
2023-03-30T06:29:06.260Z,32.47
2023-03-30T06:31:34.950Z,32.67
2023-03-30T06:34:03.397Z,28.57
2023-03-30T06:36:44.218Z,32.70
2023-03-30T06:39:14.443Z,24.00
2023-03-30T06:41:44.487Z,28.93
2023-03-30T06:44:14.684Z,26.30
2023-03-30T06:46:43.371Z,27.90
2023-03-30T06:49:13.234Z,25.67
2023-03-30T06:51:42.118Z,26.93
2023-03-30T06:54:10.781Z,29.33
2023-03-30T06:56:39.179Z,27.83
2023-03-30T06:59:12.374Z,31.83
2023-03-30T07:01:41.172Z,26.97
2023-03-30T07:04:09.584Z,29.20
2023-03-30T07:06:37.938Z,26.13
2023-03-30T07:09:06.492Z,28.63
2023-03-30T07:11:34.989Z,26.00
2023-03-30T07:14:05.454Z,28.43
2023-03-30T07:16:35.269Z,27.90
2023-03-30T07:19:03.900Z,34.77
2023-03-30T07:21:32.510Z,32.33
2023-03-30T07:24:01.827Z,28.83
2023-03-30T07:26:30.268Z,30.77
2023-03-30T07:28:59.572Z,37.33
2023-03-30T07:31:28.121Z,33.57
2023-03-30T07:33:57.810Z,29.43
2023-03-30T07:36:26.486Z,42.33
2023-03-30T07:38:54.834Z,36.90
2023-03-30T07:41:23.364Z,35.80
2023-03-30T07:43:51.969Z,36.50
2023-03-30T07:46:20.748Z,41.57
2023-03-30T07:48:49.088Z,33.10
2023-03-30T07:51:18.815Z,34.33
2023-03-30T07:53:49.042Z,34.90
2023-03-30T07:56:17.676Z,30.57
2023-03-30T07:58:46.051Z,35.97
2023-03-30T08:01:14.345Z,34.00
2023-03-30T08:03:45.066Z,47.53
2023-03-30T08:06:14.254Z,39.93
2023-03-30T08:08:43.983Z,37.73
2023-03-30T08:11:12.823Z,42.53
2023-03-30T08:13:41.145Z,38.17
2023-03-30T08:16:10.122Z,36.07
2023-03-30T08:18:41.426Z,39.27
2023-03-30T08:21:10.904Z,39.63
2023-03-30T08:23:39.271Z,40.23
2023-03-30T08:26:09.218Z,38.70
2023-03-30T08:28:38.251Z,37.07
2023-03-30T08:31:06.980Z,36.53
2023-03-30T08:33:36.494Z,41.47
2023-03-30T08:36:05.101Z,37.33
2023-03-30T08:38:33.693Z,35.90
2023-03-30T08:41:02.207Z,37.10
2023-03-30T08:43:34.953Z,38.77
2023-03-30T08:46:03.340Z,41.30
2023-03-30T08:48:33.574Z,35.37
2023-03-30T08:51:02.913Z,36.03
2023-03-30T08:53:31.812Z,27.30
2023-03-30T08:56:00.868Z,35.00
2023-03-30T08:58:32.016Z,42.63
2023-03-30T09:01:04.375Z,38.10
2023-03-30T09:03:34.271Z,35.63
2023-03-30T09:06:03.000Z,35.50
2023-03-30T09:08:32.046Z,33.57
2023-03-30T09:11:01.294Z,34.47
2023-03-30T09:13:30.571Z,38.47
2023-03-30T09:15:59.668Z,51.33
2023-03-30T09:18:30.385Z,38.13
2023-03-30T09:20:59.492Z,30.97
2023-03-30T09:23:29.736Z,37.83
2023-03-30T09:26:01.635Z,36.93
2023-03-30T09:28:32.916Z,37.20
2023-03-30T09:31:02.752Z,32.30
2023-03-30T09:33:35.656Z,32.03
2023-03-30T09:36:10.079Z,35.47
2023-03-30T09:38:41.856Z,35.43
2023-03-30T09:41:17.695Z,48.50
2023-03-30T09:43:46.458Z,36.77
2023-03-30T09:46:15.700Z,31.80
2023-03-30T09:48:45.958Z,35.10
2023-03-30T09:51:16.136Z,34.97
2023-03-30T09:53:44.602Z,32.87
2023-03-30T09:56:18.526Z,35.00
2023-03-30T09:58:47.049Z,41.67
2023-03-30T10:01:16.873Z,35.10
2023-03-30T10:03:47.226Z,35.83
2023-03-30T10:06:17.966Z,30.43
2023-03-30T10:08:51.011Z,33.87
2023-03-30T10:11:21.335Z,32.30
2023-03-30T10:13:50.772Z,35.53
2023-03-30T10:16:23.162Z,29.60
2023-03-30T10:18:53.919Z,33.73
2023-03-30T10:21:27.573Z,24.43
2023-03-30T10:24:03.611Z,24.17
2023-03-30T10:26:34.653Z,36.77
2023-03-30T10:29:04.445Z,36.30
2023-03-30T10:31:32.965Z,37.30
2023-03-30T10:34:03.024Z,37.70
2023-03-30T10:36:32.365Z,35.90
2023-03-30T10:39:04.916Z,32.93
2023-03-30T10:41:33.553Z,31.40
2023-03-30T10:44:07.132Z,22.87
2023-03-30T10:46:35.788Z,35.90
2023-03-30T10:49:08.645Z,35.97
2023-03-30T10:51:38.809Z,35.60
2023-03-30T10:54:08.568Z,29.03
2023-03-30T10:56:38.883Z,32.47
2023-03-30T10:59:15.639Z,34.57
2023-03-30T11:01:47.717Z,29.43
2023-03-30T11:04:23.815Z,26.80
2023-03-30T11:06:54.854Z,32.50
2023-03-30T11:09:24.555Z,27.57
2023-03-30T11:11:53.366Z,27.67
2023-03-30T11:14:23.187Z,34.40
2023-03-30T11:16:53.850Z,36.57
2023-03-30T11:19:24.339Z,31.47
2023-03-30T11:21:56.843Z,40.40
2023-03-30T11:24:25.885Z,34.83
2023-03-30T11:26:55.604Z,28.87
2023-03-30T11:29:27.132Z,30.87
2023-03-30T11:31:57.450Z,44.50
2023-03-30T11:34:31.753Z,38.70
2023-03-30T11:37:02.214Z,47.83
2023-03-30T11:39:32.780Z,45.97
2023-03-30T11:42:07.043Z,41.00
2023-03-30T11:44:35.398Z,42.17
2023-03-30T11:47:07.254Z,40.97
2023-03-30T11:49:46.429Z,33.60
2023-03-30T11:52:17.864Z,36.03
2023-03-30T11:55:03.459Z,36.50
2023-03-30T11:57:35.045Z,42.13
2023-03-30T12:00:09.798Z,34.70
2023-03-30T12:02:40.753Z,34.10
2023-03-30T12:05:12.070Z,40.53
2023-03-30T12:07:41.230Z,37.73
2023-03-30T12:10:11.396Z,39.40
2023-03-30T12:12:40.244Z,36.37
2023-03-30T12:15:14.189Z,38.47
2023-03-30T12:17:44.693Z,39.40
2023-03-30T12:20:27.077Z,28.67
2023-03-30T12:22:57.206Z,40.93
2023-03-30T12:25:30.668Z,42.13
2023-03-30T12:28:04.993Z,37.97
2023-03-30T12:30:35.897Z,46.67
2023-03-30T12:33:04.897Z,35.57
2023-03-30T12:35:51.891Z,51.40
2023-03-30T12:38:25.560Z,33.10
2023-03-30T12:41:22.378Z,42.00
2023-03-30T12:44:15.704Z,34.70
2023-03-30T12:46:45.287Z,38.57
2023-03-30T12:49:16.777Z,39.67
2023-03-30T12:51:52.292Z,38.00
2023-03-30T12:54:26.710Z,40.87
2023-03-30T12:56:56.995Z,40.80
2023-03-30T12:59:31.509Z,46.60
2023-03-30T13:02:03.518Z,47.57
2023-03-30T13:04:35.014Z,41.20
2023-03-30T13:07:03.956Z,35.10
2023-03-30T13:09:54.631Z,36.67
2023-03-30T13:12:28.844Z,36.57
2023-03-30T13:15:01.535Z,31.43
2023-03-30T13:17:30.119Z,35.37
2023-03-30T13:20:29.281Z,34.53
2023-03-30T13:23:08.601Z,31.27
2023-03-30T13:25:40.463Z,28.30
2023-03-30T13:28:27.425Z,37.40
2023-03-30T13:30:57.394Z,31.40
2023-03-30T13:33:25.847Z,38.07
2023-03-30T13:35:57.336Z,27.43
2023-03-30T13:38:32.569Z,30.27
2023-03-30T13:41:04.989Z,30.80
2023-03-30T13:43:51.701Z,31.67
2023-03-30T13:46:23.707Z,23.60
2023-03-30T13:48:56.470Z,29.70
2023-03-30T13:51:25.805Z,33.10
2023-03-30T13:53:55.160Z,30.33
2023-03-30T13:56:23.549Z,28.03
2023-03-30T13:58:52.777Z,25.70
2023-03-30T14:01:23.697Z,26.30
2023-03-30T14:03:52.824Z,30.00
2023-03-30T14:06:22.755Z,31.13
2023-03-30T14:08:52.487Z,25.63
2023-03-30T14:11:21.797Z,26.67
2023-03-30T14:13:53.911Z,30.60
2023-03-30T14:16:24.301Z,25.77
2023-03-30T14:18:57.218Z,28.23
2023-03-30T14:21:25.956Z,26.07
2023-03-30T14:23:55.769Z,21.67
2023-03-30T14:26:34.169Z,27.97
2023-03-30T14:29:04.099Z,32.23
2023-03-30T14:31:47.208Z,23.60
2023-03-30T14:34:35.308Z,28.70
2023-03-30T14:37:05.185Z,31.90
2023-03-30T14:39:33.966Z,26.83
2023-03-30T14:42:10.031Z,29.27
2023-03-30T14:44:39.659Z,26.57
2023-03-30T14:47:09.413Z,28.00
2023-03-30T14:49:40.858Z,26.37
2023-03-30T14:52:09.820Z,29.03
2023-03-30T14:54:38.227Z,22.43
2023-03-30T14:57:07.373Z,26.10
2023-03-30T14:59:38.533Z,23.50
2023-03-30T15:02:11.580Z,21.77
2023-03-30T15:04:42.730Z,24.93
2023-03-30T15:07:13.240Z,30.23
2023-03-30T15:09:41.810Z,22.17
2023-03-30T15:12:10.165Z,20.73
2023-03-30T15:14:39.424Z,24.07
2023-03-30T15:17:10.731Z,18.33
2023-03-30T15:19:40.836Z,22.80
2023-03-30T15:22:09.865Z,23.90
2023-03-30T15:24:38.506Z,27.50
2023-03-30T15:27:07.531Z,27.13
2023-03-30T15:29:36.703Z,26.30
2023-03-30T15:32:08.036Z,31.03
2023-03-30T15:34:36.780Z,29.83
2023-03-30T15:37:21.297Z,23.60
2023-03-30T15:39:50.032Z,27.67
2023-03-30T15:42:25.981Z,28.27
2023-03-30T15:45:02.714Z,26.93
2023-03-30T15:47:31.779Z,26.03
2023-03-30T15:50:00.392Z,23.57
2023-03-30T15:52:33.624Z,27.70
2023-03-30T15:55:04.153Z,25.80
2023-03-30T15:57:32.920Z,23.07
2023-03-30T16:00:02.357Z,23.80
2023-03-30T16:02:37.631Z,22.33
2023-03-30T16:05:06.692Z,20.00
2023-03-30T16:07:38.660Z,21.00
2023-03-30T16:10:07.641Z,22.37
2023-03-30T16:12:36.051Z,19.17
2023-03-30T16:15:04.851Z,28.57
2023-03-30T16:17:34.407Z,28.87
2023-03-30T16:20:04.301Z,24.03
2023-03-30T16:22:36.067Z,31.00
2023-03-30T16:25:04.787Z,25.30
2023-03-30T16:27:33.324Z,19.17
2023-03-30T16:30:01.792Z,24.23
2023-03-30T16:32:35.352Z,30.67
2023-03-30T16:35:04.323Z,19.23
2023-03-30T16:37:32.730Z,17.37
2023-03-30T16:40:02.562Z,26.70
2023-03-30T16:42:31.061Z,23.07
2023-03-30T16:44:59.647Z,24.00
2023-03-30T16:47:28.114Z,23.33
2023-03-30T16:49:56.582Z,20.30
2023-03-30T16:52:25.192Z,27.20
2023-03-30T16:54:53.680Z,25.53
2023-03-30T16:57:25.198Z,23.20
2023-03-30T16:59:54.207Z,22.57
2023-03-30T17:02:22.648Z,20.40
2023-03-30T17:04:51.571Z,18.37
2023-03-30T17:07:19.954Z,22.63
2023-03-30T17:09:48.371Z,19.87
2023-03-30T17:12:16.872Z,22.33
2023-03-30T17:14:47.004Z,15.97
2023-03-30T17:17:15.413Z,18.00
2023-03-30T17:19:43.911Z,24.70
2023-03-30T17:22:15.059Z,18.23
2023-03-30T17:24:43.467Z,21.47
2023-03-30T17:27:11.938Z,23.63
2023-03-30T17:29:40.435Z,23.87
2023-03-30T17:32:13.518Z,22.30
2023-03-30T17:34:42.594Z,23.40
2023-03-30T17:37:11.034Z,15.23
2023-03-30T17:39:39.481Z,23.57
2023-03-30T17:42:07.866Z,20.33
2023-03-30T17:44:37.026Z,23.03
2023-03-30T17:47:05.382Z,24.43
2023-03-30T17:49:35.118Z,28.43
2023-03-30T17:52:03.466Z,27.77
2023-03-30T17:54:31.860Z,25.63
2023-03-30T17:57:00.281Z,18.67
2023-03-30T17:59:29.103Z,20.07
2023-03-30T18:01:57.473Z,23.53
2023-03-30T18:04:25.995Z,23.43
2023-03-30T18:06:55.873Z,22.30
2023-03-30T18:09:24.214Z,25.33
2023-03-30T18:11:52.697Z,21.70
2023-03-30T18:14:21.103Z,23.93
2023-03-30T18:16:50.418Z,30.20
2023-03-30T18:19:18.925Z,21.97
2023-03-30T18:21:47.443Z,23.73
2023-03-30T18:24:17.161Z,18.93
2023-03-30T18:26:45.905Z,23.10
2023-03-30T18:29:19.900Z,23.20
2023-03-30T18:31:48.379Z,29.57
2023-03-30T18:34:17.192Z,33.67
2023-03-30T18:36:45.531Z,23.63
2023-03-30T18:39:14.161Z,24.20
2023-03-30T18:41:44.024Z,31.77
2023-03-30T18:44:13.133Z,26.13
2023-03-30T18:46:41.563Z,25.90
2023-03-30T18:49:11.129Z,26.43
2023-03-30T18:51:39.527Z,29.10
2023-03-30T18:54:08.045Z,28.73
2023-03-30T18:56:37.898Z,24.73
2023-03-30T18:59:07.663Z,30.47
2023-03-30T19:01:36.787Z,25.90
2023-03-30T19:04:08.192Z,30.33
2023-03-30T19:06:36.471Z,24.57
2023-03-30T19:09:05.168Z,27.63
2023-03-30T19:11:33.556Z,23.30
2023-03-30T19:14:04.713Z,31.17
2023-03-30T19:16:35.039Z,29.57
2023-03-30T19:19:03.592Z,31.37
2023-03-30T19:21:32.042Z,37.03
2023-03-30T19:24:00.380Z,28.87
2023-03-30T19:26:28.769Z,36.87
2023-03-30T19:28:57.100Z,30.23
2023-03-30T19:31:25.660Z,34.07
2023-03-30T19:33:55.454Z,29.60
2023-03-30T19:36:25.340Z,30.13
2023-03-30T19:38:54.473Z,33.47
2023-03-30T19:41:22.864Z,34.13
2023-03-30T19:43:51.242Z,31.43
2023-03-30T19:46:19.739Z,28.73
2023-03-30T19:48:48.163Z,27.83
2023-03-30T19:51:19.010Z,33.10
2023-03-30T19:53:47.593Z,38.30
2023-03-30T19:56:16.531Z,33.03
2023-03-30T19:58:45.230Z,34.70
2023-03-30T20:01:13.701Z,30.33
2023-03-30T20:03:42.145Z,32.87
2023-03-30T20:06:11.766Z,26.73
2023-03-30T20:08:41.734Z,36.87
2023-03-30T20:11:10.135Z,35.57
2023-03-30T20:13:45.482Z,36.07
2023-03-30T20:16:20.399Z,27.23
2023-03-30T20:18:50.748Z,32.30
2023-03-30T20:21:19.381Z,27.83
2023-03-30T20:23:49.121Z,30.93
2023-03-30T20:26:19.424Z,31.97
2023-03-30T20:28:47.822Z,33.93
2023-03-30T20:31:16.674Z,29.53
2023-03-30T20:33:45.145Z,37.57
2023-03-30T20:36:13.644Z,31.90
2023-03-30T20:38:45.894Z,30.00
2023-03-30T20:41:15.973Z,39.73
2023-03-30T20:43:56.277Z,28.03
2023-03-30T20:46:36.382Z,29.97
2023-03-30T20:49:04.777Z,32.27
2023-03-30T20:51:33.219Z,28.13
2023-03-30T20:54:01.892Z,34.17
2023-03-30T20:56:31.624Z,25.80
2023-03-30T20:59:00.221Z,34.30
2023-03-30T21:01:29.472Z,34.20
2023-03-30T21:03:58.153Z,37.17
2023-03-30T21:06:27.109Z,35.37
2023-03-30T21:08:55.788Z,33.20
2023-03-30T21:11:26.611Z,34.47
2023-03-30T21:13:59.406Z,29.57
2023-03-30T21:16:27.927Z,23.87
2023-03-30T21:18:56.443Z,29.50
2023-03-30T21:21:25.096Z,26.70
2023-03-30T21:23:53.585Z,30.53
2023-03-30T21:26:21.962Z,33.80
2023-03-30T21:28:50.451Z,36.00
2023-03-30T21:31:20.378Z,29.27
2023-03-30T21:33:48.728Z,32.77
2023-03-30T21:36:17.239Z,32.77
2023-03-30T21:38:45.695Z,37.13
2023-03-30T21:41:14.489Z,32.37
2023-03-30T21:43:44.243Z,27.63
2023-03-30T21:46:12.983Z,27.70
2023-03-30T21:48:43.260Z,29.87
2023-03-30T21:51:13.654Z,22.80
2023-03-30T21:53:42.380Z,29.97
2023-03-30T21:56:11.236Z,29.30
2023-03-30T21:58:39.672Z,22.20
2023-03-30T22:01:12.198Z,26.63
2023-03-30T22:03:41.345Z,25.83
2023-03-30T22:06:11.769Z,30.80
2023-03-30T22:08:40.167Z,33.90
2023-03-30T22:11:09.154Z,29.23
2023-03-30T22:13:37.543Z,29.23
2023-03-30T22:16:07.069Z,27.87
2023-03-30T22:18:35.734Z,30.93
2023-03-30T22:21:04.845Z,28.50
2023-03-30T22:23:34.746Z,28.33
2023-03-30T22:26:03.334Z,23.40
2023-03-30T22:28:31.802Z,28.83
2023-03-30T22:31:01.909Z,23.17
2023-03-30T22:33:30.744Z,29.60
2023-03-30T22:35:59.982Z,19.33
2023-03-30T22:38:29.211Z,27.63
2023-03-30T22:41:06.447Z,24.40
2023-03-30T22:43:36.132Z,20.20
2023-03-30T22:46:05.266Z,25.37
2023-03-30T22:48:34.052Z,17.20
2023-03-30T22:51:03.250Z,17.70
2023-03-30T22:53:31.736Z,27.03
2023-03-30T22:56:00.134Z,23.90
2023-03-30T22:58:29.854Z,29.53
2023-03-30T23:01:01.263Z,18.50
2023-03-30T23:03:29.835Z,22.67
2023-03-30T23:06:01.159Z,32.50
2023-03-30T23:08:29.949Z,24.37
2023-03-30T23:11:05.132Z,27.23
2023-03-30T23:13:37.396Z,23.60
2023-03-30T23:16:07.395Z,32.20
2023-03-30T23:18:36.504Z,27.20
2023-03-30T23:21:06.831Z,20.20
2023-03-30T23:23:35.781Z,17.13
2023-03-30T23:26:09.086Z,28.47
2023-03-30T23:28:39.874Z,19.10
2023-03-30T23:31:08.834Z,21.57
2023-03-30T23:33:37.280Z,23.93
2023-03-30T23:36:06.504Z,21.80
2023-03-30T23:38:35.136Z,18.87
2023-03-30T23:41:03.585Z,17.37
2023-03-30T23:43:31.967Z,19.57
2023-03-30T23:46:01.880Z,21.47
2023-03-30T23:48:30.604Z,16.67
2023-03-30T23:50:59.094Z,17.50
2023-03-30T23:53:27.483Z,16.27
2023-03-30T23:55:55.847Z,14.40
2023-03-30T23:58:24.285Z,13.00
